VHDRS KTVL-KSQL
Flight info
| Callsign | VHDRS |
|---|---|
| Flight time | 1h 6m |
| Altitude | 12000 |
| Route | SWR MOD BUSHY |
| Aircraft | C208/L-SDFGR/C |
Departure
| Time | 2026-04-25 00:34 |
|---|---|
| Airport | Lake Tahoe Airport (KTVL) |
Arrival
| Time | 2026-04-25 01:40 |
|---|---|
| Airport | San Carlos Airport (KSQL) |
| Time | Latitude | Longitude | Altitude | Speed | Heading |
|---|---|---|---|---|---|
| 2026-04-25 00:20 | 38.89755 | -119.99637 | 6268 ft | 0 kts | 287° |
| 2026-04-25 00:30 | 38.89754 | -119.99642 | 6268 ft | 1 kts | 228° |
| 2026-04-25 00:31 | 38.89734 | -119.99634 | 6269 ft | 11 kts | 162° |
| 2026-04-25 00:31 | 38.89573 | -119.99670 | 6268 ft | 24 kts | 192° |
| 2026-04-25 00:31 | 38.89503 | -119.99653 | 6268 ft | 19 kts | 104° |
| 2026-04-25 00:31 | 38.89724 | -119.99541 | 6267 ft | 39 kts | 12° |
| 2026-04-25 00:32 | 38.89907 | -119.99489 | 6270 ft | 35 kts | 12° |
| 2026-04-25 00:32 | 38.90064 | -119.99442 | 6269 ft | 28 kts | 12° |
| 2026-04-25 00:32 | 38.90297 | -119.99374 | 6267 ft | 37 kts | 13° |
| 2026-04-25 00:32 | 38.90445 | -119.99330 | 6264 ft | 5 kts | 19° |
| 2026-04-25 00:33 | 38.90447 | -119.99279 | 6264 ft | 7 kts | 102° |
| 2026-04-25 00:33 | 38.90421 | -119.99232 | 6264 ft | 7 kts | 190° |
| 2026-04-25 00:33 | 38.90400 | -119.99239 | 6264 ft | 20 kts | 194° |
| 2026-04-25 00:33 | 38.90012 | -119.99357 | 6271 ft | 87 kts | 192° |
| 2026-04-25 00:34 | 38.89355 | -119.99528 | 6462 ft | 95 kts | 190° |
| 2026-04-25 00:34 | 38.88655 | -119.99596 | 6840 ft | 105 kts | 186° |
| 2026-04-25 00:34 | 38.87931 | -119.99852 | 7162 ft | 112 kts | 214° |
| 2026-04-25 00:34 | 38.87427 | -120.00629 | 7444 ft | 118 kts | 253° |
| 2026-04-25 00:35 | 38.87397 | -120.01671 | 7722 ft | 123 kts | 289° |
| 2026-04-25 00:35 | 38.87858 | -120.02569 | 8012 ft | 124 kts | 326° |
| 2026-04-25 00:35 | 38.88718 | -120.02906 | 8200 ft | 135 kts | 347° |
| 2026-04-25 00:35 | 38.89640 | -120.03130 | 8518 ft | 133 kts | 354° |
| 2026-04-25 00:36 | 38.90478 | -120.02832 | 8972 ft | 127 kts | 32° |
| 2026-04-25 00:36 | 38.91048 | -120.01955 | 9286 ft | 132 kts | 73° |
| 2026-04-25 00:36 | 38.91004 | -120.00791 | 9587 ft | 132 kts | 103° |
| 2026-04-25 00:36 | 38.91352 | -119.99785 | 9985 ft | 132 kts | 34° |
| 2026-04-25 00:37 | 38.92194 | -119.99651 | 10286 ft | 123 kts | 330° |
| 2026-04-25 00:37 | 38.92849 | -120.00331 | 10526 ft | 122 kts | 317° |
| 2026-04-25 00:37 | 38.93503 | -120.01034 | 10834 ft | 123 kts | 317° |
| 2026-04-25 00:37 | 38.94163 | -120.01733 | 11146 ft | 123 kts | 318° |
| 2026-04-25 00:38 | 38.94822 | -120.02427 | 11455 ft | 121 kts | 319° |
| 2026-04-25 00:38 | 38.95480 | -120.03122 | 11732 ft | 124 kts | 320° |
| 2026-04-25 00:38 | 38.96142 | -120.03819 | 11988 ft | 128 kts | 319° |
| 2026-04-25 00:38 | 38.96888 | -120.04603 | 12006 ft | 147 kts | 320° |
| 2026-04-25 00:39 | 38.97716 | -120.05473 | 12013 ft | 160 kts | 320° |
| 2026-04-25 00:39 | 38.98597 | -120.06399 | 12031 ft | 167 kts | 320° |
| 2026-04-25 00:39 | 38.99509 | -120.07358 | 12029 ft | 172 kts | 320° |
| 2026-04-25 00:39 | 39.00440 | -120.08339 | 12034 ft | 174 kts | 320° |
| 2026-04-25 00:40 | 39.01379 | -120.09330 | 12033 ft | 175 kts | 320° |
| 2026-04-25 00:40 | 39.02320 | -120.10324 | 12035 ft | 176 kts | 320° |
| 2026-04-25 00:40 | 39.03266 | -120.11322 | 12038 ft | 176 kts | 320° |
| 2026-04-25 00:40 | 39.04218 | -120.12329 | 12036 ft | 178 kts | 320° |
| 2026-04-25 00:41 | 39.05181 | -120.13346 | 12039 ft | 180 kts | 320° |
| 2026-04-25 00:41 | 39.06150 | -120.14370 | 12042 ft | 181 kts | 320° |
| 2026-04-25 00:41 | 39.07122 | -120.15399 | 12041 ft | 181 kts | 320° |
| 2026-04-25 00:41 | 39.08097 | -120.16430 | 12041 ft | 182 kts | 320° |
| 2026-04-25 00:42 | 39.09073 | -120.17463 | 12049 ft | 182 kts | 320° |
| 2026-04-25 00:42 | 39.10052 | -120.18499 | 12053 ft | 182 kts | 320° |
| 2026-04-25 00:42 | 39.11031 | -120.19535 | 12052 ft | 182 kts | 320° |
| 2026-04-25 00:42 | 39.12005 | -120.20568 | 12052 ft | 181 kts | 320° |
| 2026-04-25 00:43 | 39.12977 | -120.21599 | 12058 ft | 181 kts | 320° |
| 2026-04-25 00:43 | 39.13930 | -120.22662 | 12036 ft | 182 kts | 311° |
| 2026-04-25 00:43 | 39.14559 | -120.24053 | 12037 ft | 180 kts | 289° |
| 2026-04-25 00:43 | 39.14742 | -120.25629 | 12038 ft | 179 kts | 268° |
| 2026-04-25 00:44 | 39.14460 | -120.27180 | 12034 ft | 179 kts | 247° |
| 2026-04-25 00:44 | 39.13755 | -120.28483 | 12029 ft | 178 kts | 226° |
| 2026-04-25 00:44 | 39.12730 | -120.29357 | 12041 ft | 178 kts | 205° |
| 2026-04-25 00:44 | 39.11562 | -120.29888 | 12034 ft | 178 kts | 201° |
| 2026-04-25 00:45 | 39.10393 | -120.30414 | 12039 ft | 178 kts | 201° |
| 2026-04-25 00:45 | 39.09223 | -120.30944 | 12038 ft | 178 kts | 201° |
| 2026-04-25 00:45 | 39.08052 | -120.31474 | 12032 ft | 179 kts | 201° |
| 2026-04-25 00:45 | 39.06876 | -120.32006 | 12036 ft | 179 kts | 201° |
| 2026-04-25 00:46 | 39.05699 | -120.32539 | 12038 ft | 179 kts | 201° |
| 2026-04-25 00:46 | 39.04524 | -120.33069 | 12033 ft | 178 kts | 200° |
| 2026-04-25 00:46 | 39.02185 | -120.34125 | 12036 ft | 178 kts | 200° |
| 2026-04-25 00:47 | 39.01014 | -120.34653 | 12033 ft | 178 kts | 200° |
| 2026-04-25 00:47 | 38.99844 | -120.35181 | 12029 ft | 178 kts | 200° |
| 2026-04-25 00:47 | 38.98675 | -120.35708 | 12027 ft | 178 kts | 200° |
| 2026-04-25 00:47 | 38.97508 | -120.36234 | 12032 ft | 178 kts | 200° |
| 2026-04-25 00:48 | 38.96340 | -120.36760 | 12023 ft | 178 kts | 200° |
| 2026-04-25 00:48 | 38.95172 | -120.37286 | 12032 ft | 178 kts | 200° |
| 2026-04-25 00:48 | 38.94004 | -120.37812 | 12032 ft | 178 kts | 200° |
| 2026-04-25 00:48 | 38.92839 | -120.38337 | 12032 ft | 177 kts | 200° |
| 2026-04-25 00:49 | 38.91675 | -120.38861 | 12030 ft | 177 kts | 200° |
| 2026-04-25 00:49 | 38.90525 | -120.39378 | 12031 ft | 178 kts | 200° |
| 2026-04-25 00:49 | 38.89357 | -120.39903 | 12030 ft | 178 kts | 200° |
| 2026-04-25 00:49 | 38.88194 | -120.40425 | 12032 ft | 177 kts | 199° |
| 2026-04-25 00:50 | 38.87031 | -120.40947 | 12032 ft | 177 kts | 199° |
| 2026-04-25 00:50 | 38.85871 | -120.41469 | 12033 ft | 177 kts | 199° |
| 2026-04-25 00:50 | 38.84714 | -120.41990 | 12034 ft | 176 kts | 199° |
| 2026-04-25 00:50 | 38.83557 | -120.42509 | 12035 ft | 176 kts | 199° |
| 2026-04-25 00:51 | 38.82403 | -120.43027 | 12036 ft | 176 kts | 199° |
| 2026-04-25 00:51 | 38.81249 | -120.43544 | 12034 ft | 176 kts | 198° |
| 2026-04-25 00:51 | 38.80094 | -120.44061 | 12038 ft | 176 kts | 198° |
| 2026-04-25 00:51 | 38.78938 | -120.44578 | 12039 ft | 176 kts | 198° |
| 2026-04-25 00:52 | 38.77780 | -120.45098 | 12038 ft | 176 kts | 198° |
| 2026-04-25 00:52 | 38.76625 | -120.45617 | 12042 ft | 176 kts | 199° |
| 2026-04-25 00:52 | 38.75464 | -120.46137 | 12043 ft | 177 kts | 198° |
| 2026-04-25 00:52 | 38.74302 | -120.46657 | 12043 ft | 177 kts | 198° |
| 2026-04-25 00:53 | 38.73142 | -120.47175 | 12040 ft | 177 kts | 198° |
| 2026-04-25 00:53 | 38.71979 | -120.47696 | 12041 ft | 177 kts | 198° |
| 2026-04-25 00:53 | 38.70820 | -120.48215 | 12037 ft | 176 kts | 198° |
| 2026-04-25 00:53 | 38.69662 | -120.48732 | 12040 ft | 176 kts | 198° |
| 2026-04-25 00:54 | 38.68505 | -120.49249 | 12044 ft | 176 kts | 198° |
| 2026-04-25 00:54 | 38.67343 | -120.49768 | 12038 ft | 177 kts | 198° |
| 2026-04-25 00:54 | 38.66184 | -120.50285 | 12023 ft | 176 kts | 198° |
| 2026-04-25 00:54 | 38.65027 | -120.50801 | 12025 ft | 176 kts | 198° |
| 2026-04-25 00:55 | 38.63868 | -120.51319 | 12017 ft | 176 kts | 198° |
| 2026-04-25 00:55 | 38.62709 | -120.51837 | 12017 ft | 176 kts | 198° |
| 2026-04-25 00:55 | 38.61550 | -120.52353 | 12019 ft | 176 kts | 199° |
| 2026-04-25 00:55 | 38.60389 | -120.52870 | 12021 ft | 177 kts | 198° |
| 2026-04-25 00:56 | 38.59227 | -120.53388 | 12022 ft | 177 kts | 198° |
| 2026-04-25 00:56 | 38.58068 | -120.53905 | 12021 ft | 176 kts | 198° |
| 2026-04-25 00:56 | 38.56908 | -120.54421 | 12022 ft | 176 kts | 198° |
| 2026-04-25 00:56 | 38.55749 | -120.54938 | 12023 ft | 177 kts | 198° |
| 2026-04-25 00:57 | 38.54590 | -120.55454 | 12025 ft | 176 kts | 198° |
| 2026-04-25 00:57 | 38.53429 | -120.55970 | 12027 ft | 177 kts | 198° |
| 2026-04-25 00:57 | 38.52267 | -120.56486 | 12028 ft | 177 kts | 198° |
| 2026-04-25 00:57 | 38.51104 | -120.57004 | 12029 ft | 177 kts | 198° |
| 2026-04-25 00:58 | 38.49938 | -120.57522 | 12028 ft | 177 kts | 198° |
| 2026-04-25 00:58 | 38.48773 | -120.58040 | 12029 ft | 177 kts | 198° |
| 2026-04-25 00:58 | 38.47611 | -120.58556 | 12030 ft | 177 kts | 198° |
| 2026-04-25 00:58 | 38.46449 | -120.59072 | 12030 ft | 177 kts | 199° |
| 2026-04-25 00:59 | 38.45284 | -120.59588 | 12032 ft | 177 kts | 198° |
| 2026-04-25 00:59 | 38.44135 | -120.60098 | 12033 ft | 177 kts | 198° |
| 2026-04-25 00:59 | 38.42975 | -120.60613 | 12034 ft | 176 kts | 198° |
| 2026-04-25 00:59 | 38.41816 | -120.61127 | 12035 ft | 177 kts | 198° |
| 2026-04-25 01:00 | 38.40655 | -120.61642 | 12033 ft | 177 kts | 198° |
| 2026-04-25 01:00 | 38.39495 | -120.62157 | 12035 ft | 177 kts | 198° |
| 2026-04-25 01:00 | 38.38330 | -120.62671 | 12036 ft | 177 kts | 198° |
| 2026-04-25 01:00 | 38.37165 | -120.63187 | 12036 ft | 177 kts | 198° |
| 2026-04-25 01:01 | 38.36000 | -120.63703 | 12034 ft | 178 kts | 198° |
| 2026-04-25 01:01 | 38.34832 | -120.64220 | 12037 ft | 178 kts | 198° |
| 2026-04-25 01:01 | 38.33661 | -120.64738 | 12038 ft | 178 kts | 198° |
| 2026-04-25 01:01 | 38.32490 | -120.65256 | 12028 ft | 178 kts | 198° |
| 2026-04-25 01:02 | 38.31325 | -120.65771 | 12033 ft | 177 kts | 199° |
| 2026-04-25 01:02 | 38.30157 | -120.66286 | 12036 ft | 178 kts | 198° |
| 2026-04-25 01:02 | 38.28990 | -120.66802 | 12024 ft | 177 kts | 198° |
| 2026-04-25 01:02 | 38.27825 | -120.67316 | 12018 ft | 177 kts | 198° |
| 2026-04-25 01:03 | 38.26662 | -120.67831 | 12020 ft | 177 kts | 198° |
| 2026-04-25 01:03 | 38.25495 | -120.68345 | 12017 ft | 178 kts | 198° |
| 2026-04-25 01:03 | 38.24330 | -120.68859 | 12022 ft | 177 kts | 199° |
| 2026-04-25 01:03 | 38.23164 | -120.69373 | 12024 ft | 177 kts | 198° |
| 2026-04-25 01:04 | 38.21998 | -120.69886 | 12023 ft | 177 kts | 198° |
| 2026-04-25 01:04 | 38.20833 | -120.70400 | 12022 ft | 177 kts | 198° |
| 2026-04-25 01:04 | 38.19667 | -120.70914 | 12023 ft | 177 kts | 198° |
| 2026-04-25 01:04 | 38.18504 | -120.71426 | 12023 ft | 177 kts | 198° |
| 2026-04-25 01:05 | 38.17342 | -120.71938 | 12023 ft | 177 kts | 198° |
| 2026-04-25 01:05 | 38.16180 | -120.72449 | 12018 ft | 177 kts | 199° |
| 2026-04-25 01:05 | 38.15018 | -120.72960 | 12023 ft | 177 kts | 198° |
| 2026-04-25 01:05 | 38.13854 | -120.73472 | 12024 ft | 177 kts | 198° |
| 2026-04-25 01:06 | 38.12692 | -120.73983 | 12019 ft | 177 kts | 199° |
| 2026-04-25 01:06 | 38.11528 | -120.74494 | 12020 ft | 177 kts | 199° |
| 2026-04-25 01:06 | 38.10364 | -120.75006 | 12022 ft | 177 kts | 199° |
| 2026-04-25 01:06 | 38.09197 | -120.75518 | 12018 ft | 178 kts | 199° |
| 2026-04-25 01:07 | 38.08046 | -120.76023 | 12018 ft | 177 kts | 199° |
| 2026-04-25 01:07 | 38.06881 | -120.76534 | 12022 ft | 177 kts | 199° |
| 2026-04-25 01:07 | 38.05716 | -120.77046 | 12014 ft | 177 kts | 199° |
| 2026-04-25 01:07 | 38.04549 | -120.77558 | 12019 ft | 177 kts | 199° |
| 2026-04-25 01:08 | 38.03382 | -120.78069 | 12019 ft | 177 kts | 199° |
| 2026-04-25 01:08 | 38.02216 | -120.78581 | 12011 ft | 178 kts | 199° |
| 2026-04-25 01:08 | 38.01047 | -120.79092 | 12009 ft | 178 kts | 199° |
| 2026-04-25 01:08 | 37.99879 | -120.79604 | 12010 ft | 178 kts | 199° |
| 2026-04-25 01:09 | 37.98711 | -120.80116 | 12008 ft | 178 kts | 199° |
| 2026-04-25 01:09 | 37.97541 | -120.80628 | 12010 ft | 179 kts | 199° |
| 2026-04-25 01:09 | 37.96359 | -120.81145 | 11991 ft | 180 kts | 199° |
| 2026-04-25 01:09 | 37.95175 | -120.81663 | 11996 ft | 180 kts | 199° |
| 2026-04-25 01:10 | 37.93989 | -120.82181 | 11990 ft | 180 kts | 199° |
| 2026-04-25 01:10 | 37.92804 | -120.82699 | 11993 ft | 180 kts | 199° |
| 2026-04-25 01:10 | 37.91620 | -120.83216 | 11994 ft | 180 kts | 199° |
| 2026-04-25 01:10 | 37.90435 | -120.83734 | 11989 ft | 180 kts | 199° |
| 2026-04-25 01:11 | 37.89249 | -120.84252 | 11994 ft | 181 kts | 199° |
| 2026-04-25 01:11 | 37.88059 | -120.84772 | 11990 ft | 181 kts | 199° |
| 2026-04-25 01:11 | 37.86867 | -120.85291 | 11989 ft | 181 kts | 199° |
| 2026-04-25 01:11 | 37.85674 | -120.85811 | 11989 ft | 182 kts | 199° |
| 2026-04-25 01:12 | 37.84477 | -120.86334 | 11995 ft | 182 kts | 199° |
| 2026-04-25 01:12 | 37.83281 | -120.86855 | 11985 ft | 182 kts | 199° |
| 2026-04-25 01:12 | 37.82086 | -120.87376 | 11990 ft | 182 kts | 199° |
| 2026-04-25 01:12 | 37.80891 | -120.87897 | 11991 ft | 182 kts | 199° |
| 2026-04-25 01:13 | 37.79696 | -120.88417 | 11991 ft | 182 kts | 199° |
| 2026-04-25 01:13 | 37.78500 | -120.88937 | 11992 ft | 182 kts | 199° |
| 2026-04-25 01:13 | 37.77322 | -120.89450 | 11989 ft | 182 kts | 199° |
| 2026-04-25 01:13 | 37.76112 | -120.89976 | 11994 ft | 182 kts | 199° |
| 2026-04-25 01:14 | 37.74915 | -120.90497 | 11990 ft | 182 kts | 199° |
| 2026-04-25 01:14 | 37.73719 | -120.91018 | 11989 ft | 182 kts | 199° |
| 2026-04-25 01:14 | 37.72539 | -120.91530 | 11987 ft | 182 kts | 199° |
| 2026-04-25 01:14 | 37.71326 | -120.92056 | 11989 ft | 182 kts | 199° |
| 2026-04-25 01:15 | 37.70147 | -120.92569 | 11980 ft | 182 kts | 199° |
| 2026-04-25 01:15 | 37.68931 | -120.93097 | 11987 ft | 182 kts | 199° |
| 2026-04-25 01:15 | 37.67750 | -120.93609 | 11988 ft | 182 kts | 199° |
| 2026-04-25 01:15 | 37.66553 | -120.94129 | 11987 ft | 182 kts | 199° |
| 2026-04-25 01:16 | 37.65357 | -120.94647 | 11988 ft | 182 kts | 200° |
| 2026-04-25 01:16 | 37.64159 | -120.95166 | 11986 ft | 182 kts | 200° |
| 2026-04-25 01:16 | 37.63032 | -120.95879 | 11985 ft | 182 kts | 219° |
| 2026-04-25 01:16 | 37.62221 | -120.97096 | 11981 ft | 182 kts | 243° |
| 2026-04-25 01:17 | 37.61664 | -120.98533 | 11975 ft | 183 kts | 245° |
| 2026-04-25 01:17 | 37.61287 | -120.99507 | 11981 ft | 183 kts | 245° |
| 2026-04-25 01:17 | 37.60544 | -121.01415 | 11986 ft | 183 kts | 245° |
| 2026-04-25 01:17 | 37.59982 | -121.02855 | 11986 ft | 183 kts | 245° |
| 2026-04-25 01:18 | 37.59420 | -121.04296 | 11987 ft | 183 kts | 245° |
| 2026-04-25 01:18 | 37.58859 | -121.05736 | 11986 ft | 183 kts | 245° |
| 2026-04-25 01:18 | 37.58297 | -121.07176 | 11986 ft | 183 kts | 245° |
| 2026-04-25 01:18 | 37.57735 | -121.08615 | 11980 ft | 183 kts | 245° |
| 2026-04-25 01:19 | 37.57355 | -121.09587 | 11985 ft | 183 kts | 245° |
| 2026-04-25 01:19 | 37.56610 | -121.11495 | 11985 ft | 183 kts | 245° |
| 2026-04-25 01:19 | 37.56229 | -121.12468 | 11989 ft | 183 kts | 245° |
| 2026-04-25 01:19 | 37.55666 | -121.13909 | 11989 ft | 183 kts | 245° |
| 2026-04-25 01:20 | 37.55103 | -121.15348 | 11991 ft | 183 kts | 245° |
| 2026-04-25 01:20 | 37.54540 | -121.16787 | 11992 ft | 183 kts | 245° |
| 2026-04-25 01:20 | 37.53976 | -121.18226 | 11986 ft | 183 kts | 245° |
| 2026-04-25 01:20 | 37.53413 | -121.19664 | 11988 ft | 183 kts | 245° |
| 2026-04-25 01:21 | 37.52856 | -121.21086 | 11995 ft | 183 kts | 245° |
| 2026-04-25 01:21 | 37.52284 | -121.22543 | 11996 ft | 183 kts | 245° |
| 2026-04-25 01:21 | 37.51719 | -121.23983 | 12005 ft | 183 kts | 245° |
| 2026-04-25 01:21 | 37.51155 | -121.25423 | 12003 ft | 184 kts | 245° |
| 2026-04-25 01:22 | 37.50589 | -121.26864 | 12004 ft | 184 kts | 245° |
| 2026-04-25 01:22 | 37.50029 | -121.28288 | 11999 ft | 184 kts | 245° |
| 2026-04-25 01:22 | 37.49461 | -121.29733 | 12006 ft | 184 kts | 245° |
| 2026-04-25 01:22 | 37.48893 | -121.31179 | 12007 ft | 184 kts | 245° |
| 2026-04-25 01:23 | 37.48324 | -121.32625 | 12013 ft | 184 kts | 245° |
| 2026-04-25 01:23 | 37.47754 | -121.34072 | 12009 ft | 184 kts | 245° |
| 2026-04-25 01:23 | 37.47184 | -121.35520 | 12013 ft | 184 kts | 245° |
| 2026-04-25 01:23 | 37.46615 | -121.36965 | 12009 ft | 184 kts | 245° |
| 2026-04-25 01:24 | 37.46046 | -121.38408 | 12013 ft | 184 kts | 245° |
| 2026-04-25 01:24 | 37.45476 | -121.39852 | 12007 ft | 184 kts | 245° |
| 2026-04-25 01:24 | 37.44906 | -121.41299 | 12009 ft | 185 kts | 245° |
| 2026-04-25 01:24 | 37.44336 | -121.42745 | 12017 ft | 184 kts | 245° |
| 2026-04-25 01:25 | 37.43765 | -121.44190 | 12020 ft | 184 kts | 245° |
| 2026-04-25 01:25 | 37.43194 | -121.45636 | 12012 ft | 185 kts | 245° |
| 2026-04-25 01:25 | 37.42622 | -121.47082 | 12014 ft | 185 kts | 245° |
| 2026-04-25 01:25 | 37.42050 | -121.48528 | 12009 ft | 185 kts | 245° |
| 2026-04-25 01:26 | 37.41478 | -121.49974 | 12020 ft | 184 kts | 245° |
| 2026-04-25 01:26 | 37.40908 | -121.51416 | 12026 ft | 184 kts | 245° |
| 2026-04-25 01:26 | 37.40336 | -121.52860 | 12027 ft | 184 kts | 245° |
| 2026-04-25 01:26 | 37.39765 | -121.54302 | 12031 ft | 184 kts | 245° |
| 2026-04-25 01:27 | 37.39328 | -121.55805 | 12037 ft | 184 kts | 262° |
| 2026-04-25 01:27 | 37.39391 | -121.57395 | 12038 ft | 183 kts | 284° |
| 2026-04-25 01:27 | 37.39670 | -121.58956 | 12034 ft | 183 kts | 284° |
| 2026-04-25 01:28 | 37.40217 | -121.62085 | 12044 ft | 183 kts | 284° |
| 2026-04-25 01:28 | 37.40489 | -121.63652 | 12039 ft | 184 kts | 283° |
| 2026-04-25 01:28 | 37.40762 | -121.65220 | 12040 ft | 184 kts | 283° |
| 2026-04-25 01:28 | 37.41034 | -121.66786 | 12046 ft | 183 kts | 284° |
| 2026-04-25 01:29 | 37.41305 | -121.68352 | 12048 ft | 183 kts | 284° |
| 2026-04-25 01:29 | 37.41576 | -121.69919 | 12048 ft | 183 kts | 284° |
| 2026-04-25 01:29 | 37.41848 | -121.71486 | 12052 ft | 183 kts | 284° |
| 2026-04-25 01:29 | 37.42119 | -121.73055 | 12044 ft | 184 kts | 283° |
| 2026-04-25 01:30 | 37.42390 | -121.74624 | 12043 ft | 184 kts | 283° |
| 2026-04-25 01:30 | 37.42662 | -121.76193 | 12041 ft | 183 kts | 283° |
| 2026-04-25 01:30 | 37.42933 | -121.77763 | 12049 ft | 183 kts | 283° |
| 2026-04-25 01:30 | 37.43202 | -121.79329 | 12048 ft | 184 kts | 283° |
| 2026-04-25 01:31 | 37.43474 | -121.80904 | 12046 ft | 184 kts | 283° |
| 2026-04-25 01:31 | 37.43746 | -121.82481 | 12040 ft | 185 kts | 283° |
| 2026-04-25 01:31 | 37.44017 | -121.84060 | 12046 ft | 185 kts | 283° |
| 2026-04-25 01:31 | 37.44289 | -121.85639 | 12039 ft | 185 kts | 283° |
| 2026-04-25 01:32 | 37.44560 | -121.87220 | 12048 ft | 185 kts | 283° |
| 2026-04-25 01:32 | 37.44833 | -121.88809 | 11937 ft | 190 kts | 283° |
| 2026-04-25 01:32 | 37.45114 | -121.90437 | 11687 ft | 190 kts | 283° |
| 2026-04-25 01:32 | 37.45387 | -121.92028 | 11316 ft | 191 kts | 283° |
| 2026-04-25 01:33 | 37.45670 | -121.93677 | 10828 ft | 195 kts | 283° |
| 2026-04-25 01:33 | 37.45957 | -121.95351 | 10347 ft | 196 kts | 283° |
| 2026-04-25 01:33 | 37.46243 | -121.97027 | 9871 ft | 196 kts | 282° |
| 2026-04-25 01:33 | 37.46528 | -121.98695 | 9353 ft | 194 kts | 282° |
| 2026-04-25 01:34 | 37.46809 | -122.00339 | 8835 ft | 189 kts | 282° |
| 2026-04-25 01:34 | 37.47082 | -122.01936 | 8327 ft | 184 kts | 282° |
| 2026-04-25 01:34 | 37.47348 | -122.03498 | 7854 ft | 180 kts | 282° |
| 2026-04-25 01:34 | 37.47607 | -122.05030 | 7417 ft | 177 kts | 281° |
| 2026-04-25 01:35 | 37.47863 | -122.06537 | 6977 ft | 176 kts | 281° |
| 2026-04-25 01:35 | 37.48119 | -122.08040 | 6543 ft | 175 kts | 281° |
| 2026-04-25 01:35 | 37.48372 | -122.09534 | 6099 ft | 174 kts | 281° |
| 2026-04-25 01:35 | 37.48625 | -122.11024 | 5642 ft | 174 kts | 281° |
| 2026-04-25 01:36 | 37.48876 | -122.12513 | 5194 ft | 174 kts | 280° |
| 2026-04-25 01:36 | 37.49126 | -122.13997 | 4749 ft | 173 kts | 279° |
| 2026-04-25 01:36 | 37.49378 | -122.15482 | 4291 ft | 173 kts | 279° |
| 2026-04-25 01:36 | 37.49629 | -122.16965 | 3835 ft | 173 kts | 279° |
| 2026-04-25 01:37 | 37.49874 | -122.18415 | 3411 ft | 171 kts | 280° |
| 2026-04-25 01:37 | 37.50127 | -122.19872 | 2950 ft | 169 kts | 281° |
| 2026-04-25 01:37 | 37.50506 | -122.21041 | 2565 ft | 125 kts | 294° |
| 2026-04-25 01:37 | 37.50952 | -122.21927 | 2272 ft | 122 kts | 303° |
| 2026-04-25 01:38 | 37.51548 | -122.22720 | 2015 ft | 129 kts | 312° |
| 2026-04-25 01:38 | 37.52187 | -122.23446 | 1952 ft | 112 kts | 316° |
| 2026-04-25 01:38 | 37.52776 | -122.24011 | 1924 ft | 104 kts | 320° |
| 2026-04-25 01:38 | 37.53392 | -122.24500 | 1830 ft | 105 kts | 322° |
| 2026-04-25 01:39 | 37.53737 | -122.25196 | 1642 ft | 97 kts | 267° |
| 2026-04-25 01:39 | 37.53471 | -122.25924 | 1335 ft | 88 kts | 233° |
| 2026-04-25 01:39 | 37.53025 | -122.26366 | 1091 ft | 83 kts | 201° |
| 2026-04-25 01:39 | 37.52405 | -122.26257 | 646 ft | 98 kts | 161° |
| 2026-04-25 01:40 | 37.51852 | -122.25694 | 216 ft | 102 kts | 146° |
| 2026-04-25 01:40 | 37.51356 | -122.25139 | 14 ft | 87 kts | 141° |
| 2026-04-25 01:40 | 37.51009 | -122.24750 | 10 ft | 38 kts | 142° |
| 2026-04-25 01:40 | 37.50912 | -122.24676 | 8 ft | 10 kts | 237° |
| 2026-04-25 01:41 | 37.50936 | -122.24737 | 9 ft | 10 kts | 319° |
| 2026-04-25 01:41 | 37.50964 | -122.24799 | 10 ft | 7 kts | 317° |
| 2026-04-25 01:41 | 37.51002 | -122.24844 | 12 ft | 7 kts | 315° |
| 2026-04-25 01:41 | 37.51016 | -122.24860 | 12 ft | 0 kts | 317° |
| 2026-04-25 01:42 | 37.51031 | -122.24876 | 12 ft | 8 kts | 320° |
| 2026-04-25 01:42 | 37.51029 | -122.24918 | 12 ft | 1 kts | 225° |
| 2026-04-25 01:42 | 37.51029 | -122.24925 | 12 ft | 4 kts | 292° |
| 2026-04-25 01:43 | 37.51038 | -122.24935 | 12 ft | 1 kts | 316° |
| 2026-04-25 01:43 | 37.51043 | -122.24941 | 12 ft | 0 kts | 315° |